createdAt,value
2023-01-31T00:00:04.528Z,1007.35
2023-01-31T00:05:03.519Z,1007.36
2023-01-31T00:10:05.325Z,1007.33
2023-01-31T00:15:03.492Z,1007.31
2023-01-31T00:20:05.758Z,1007.33
2023-01-31T00:25:03.476Z,1007.42
2023-01-31T00:30:04.503Z,1007.43
2023-01-31T00:35:03.477Z,1007.36
2023-01-31T00:40:04.574Z,1007.4
2023-01-31T00:45:03.416Z,1007.42
2023-01-31T00:50:04.657Z,1007.42
2023-01-31T00:55:03.424Z,1007.43
2023-01-31T01:00:09.785Z,1007.56
2023-01-31T01:05:03.442Z,1007.7
2023-01-31T01:10:04.304Z,1007.81
2023-01-31T01:15:03.313Z,1007.87
2023-01-31T01:20:04.427Z,1008.02
2023-01-31T01:25:03.493Z,1008.19
2023-01-31T01:30:04.740Z,1008.32
2023-01-31T01:35:03.444Z,1008.5
2023-01-31T01:40:04.534Z,1008.62
2023-01-31T01:45:04.386Z,1008.78
2023-01-31T01:50:04.623Z,1008.92
2023-01-31T01:55:03.335Z,1009.08
2023-01-31T02:00:04.495Z,1009.23
2023-01-31T02:05:03.883Z,1009.35
2023-01-31T02:10:04.589Z,1009.46
2023-01-31T02:15:03.462Z,1009.59
2023-01-31T02:20:04.351Z,1009.72
2023-01-31T02:25:03.541Z,1009.79
2023-01-31T02:30:04.468Z,1009.84
2023-01-31T02:35:03.465Z,1009.86
2023-01-31T02:40:06.091Z,1009.82
2023-01-31T02:45:03.435Z,1009.84
2023-01-31T02:50:04.594Z,1009.8
2023-01-31T02:55:03.370Z,1009.73
2023-01-31T03:00:09.514Z,1009.66
2023-01-31T03:05:03.453Z,1009.53
2023-01-31T03:10:04.272Z,1009.47
2023-01-31T03:15:03.412Z,1009.37
2023-01-31T03:20:04.397Z,1009.29
2023-01-31T03:25:03.362Z,1009.28
2023-01-31T03:30:04.522Z,1009.23
2023-01-31T03:35:03.383Z,1009.15
2023-01-31T03:40:04.558Z,1009.07
2023-01-31T03:45:03.331Z,1008.96
2023-01-31T03:50:04.370Z,1008.93
2023-01-31T03:55:03.360Z,1008.83
2023-01-31T04:00:04.479Z,1008.8
2023-01-31T04:05:03.383Z,1008.72
2023-01-31T04:10:05.083Z,1008.67
2023-01-31T04:15:03.266Z,1008.57
2023-01-31T04:20:04.366Z,1008.48
2023-01-31T04:25:03.329Z,1008.44
2023-01-31T04:30:04.614Z,1008.36
2023-01-31T04:35:03.433Z,1008.17
2023-01-31T04:40:04.336Z,1008.09
2023-01-31T04:45:03.296Z,1008.07
2023-01-31T04:50:04.394Z,1008.01
2023-01-31T04:55:03.346Z,1008.02
2023-01-31T05:00:04.471Z,1007.95
2023-01-31T05:05:04.434Z,1007.95
2023-01-31T05:10:04.482Z,1007.99
2023-01-31T05:15:03.471Z,1007.97
2023-01-31T05:20:04.347Z,1008.0
2023-01-31T05:25:03.721Z,1007.95
2023-01-31T05:30:04.583Z,1007.94
2023-01-31T05:35:03.702Z,1007.88
2023-01-31T05:40:04.578Z,1007.77
2023-01-31T05:45:03.354Z,1007.78
2023-01-31T05:50:04.420Z,1007.69
2023-01-31T05:55:03.402Z,1007.66
2023-01-31T06:00:04.444Z,1007.68
2023-01-31T06:05:03.440Z,1007.62
2023-01-31T06:10:04.256Z,1007.58
2023-01-31T06:15:03.247Z,1007.5
2023-01-31T06:20:04.358Z,1007.45
2023-01-31T06:25:03.416Z,1007.32
2023-01-31T06:30:04.430Z,1007.19
2023-01-31T06:35:03.404Z,1007.1
2023-01-31T06:40:04.504Z,1007.06
2023-01-31T06:45:03.437Z,1006.95
2023-01-31T06:50:04.322Z,1006.83
2023-01-31T06:55:03.342Z,1006.71
2023-01-31T07:00:04.455Z,1006.64
2023-01-31T07:05:03.442Z,1006.65
2023-01-31T07:10:04.498Z,1006.62
2023-01-31T07:15:03.229Z,1006.57
2023-01-31T07:20:04.424Z,1006.49
2023-01-31T07:25:03.320Z,1006.43
2023-01-31T07:30:04.669Z,1006.47
2023-01-31T07:35:03.426Z,1006.43
2023-01-31T07:40:04.286Z,1006.42
2023-01-31T07:45:20.829Z,1006.5
2023-01-31T07:50:04.352Z,1006.65
2023-01-31T07:55:03.313Z,1006.75
2023-01-31T08:00:04.451Z,1006.84
2023-01-31T08:05:03.448Z,1006.86
2023-01-31T08:10:04.529Z,1006.87
2023-01-31T08:15:03.348Z,1006.81
2023-01-31T08:20:04.391Z,1006.88
2023-01-31T08:25:03.443Z,1006.99
2023-01-31T08:30:04.472Z,1007.1
2023-01-31T08:35:03.383Z,1007.12
2023-01-31T08:40:04.271Z,1007.16
2023-01-31T08:45:03.260Z,1007.23
2023-01-31T08:50:04.321Z,1007.36
2023-01-31T08:55:03.390Z,1007.46
2023-01-31T09:00:04.411Z,1007.58
2023-01-31T09:05:03.413Z,1007.62
2023-01-31T09:10:04.245Z,1007.63
2023-01-31T09:15:03.205Z,1007.74
2023-01-31T09:20:04.311Z,1007.84
2023-01-31T09:25:03.437Z,1007.94
2023-01-31T09:30:04.436Z,1008.07
2023-01-31T09:35:03.415Z,1008.21
2023-01-31T09:40:04.556Z,1008.32
2023-01-31T09:45:03.270Z,1008.4
2023-01-31T09:50:04.309Z,1008.44
2023-01-31T09:55:04.335Z,1008.58
2023-01-31T10:00:04.324Z,1008.67
2023-01-31T10:05:03.469Z,1008.72
2023-01-31T10:10:04.475Z,1008.78
2023-01-31T10:15:03.413Z,1008.79
2023-01-31T10:20:04.394Z,1008.83
2023-01-31T10:25:03.366Z,1008.9
2023-01-31T10:30:04.450Z,1008.98
2023-01-31T10:35:03.424Z,1009.04
2023-01-31T10:40:04.485Z,1009.11
2023-01-31T10:45:03.456Z,1009.15
2023-01-31T10:50:04.423Z,1009.16
2023-01-31T10:55:03.343Z,1009.16
2023-01-31T11:00:04.400Z,1009.2
2023-01-31T11:05:03.416Z,1009.27
2023-01-31T11:10:04.438Z,1009.39
2023-01-31T11:15:03.407Z,1009.45
2023-01-31T11:20:04.337Z,1009.55
2023-01-31T11:25:03.321Z,1009.66
2023-01-31T11:30:04.620Z,1009.69
2023-01-31T11:35:03.600Z,1009.67
2023-01-31T11:40:04.257Z,1009.65
2023-01-31T11:45:03.274Z,1009.64
2023-01-31T11:50:04.107Z,1009.63
2023-01-31T11:55:03.329Z,1009.7
2023-01-31T12:00:04.222Z,1009.77
2023-01-31T12:05:03.419Z,1009.82
2023-01-31T12:10:04.229Z,1009.81
2023-01-31T12:15:03.461Z,1009.88
2023-01-31T12:20:14.367Z,1009.9
2023-01-31T12:25:03.318Z,1009.92
2023-01-31T12:30:04.399Z,1009.93
2023-01-31T12:35:07.060Z,1009.95
2023-01-31T12:40:09.151Z,1009.98
2023-01-31T12:45:03.219Z,1010.0
2023-01-31T12:50:04.528Z,1010.0
2023-01-31T12:55:03.336Z,1010.06
2023-01-31T13:00:04.420Z,1010.05
2023-01-31T13:05:04.279Z,1010.05
2023-01-31T13:10:04.541Z,1010.12
2023-01-31T13:15:03.211Z,1010.12
2023-01-31T13:20:04.373Z,1010.12
2023-01-31T13:25:03.342Z,1010.16
2023-01-31T13:30:04.423Z,1010.16
2023-01-31T13:35:03.406Z,1010.16
2023-01-31T13:40:04.509Z,1010.18
2023-01-31T13:45:03.756Z,1010.15
2023-01-31T13:50:04.331Z,1010.16
2023-01-31T13:55:03.360Z,1010.18
2023-01-31T14:00:04.457Z,1010.2
2023-01-31T14:05:03.406Z,1010.2
2023-01-31T14:10:04.268Z,1010.19
2023-01-31T14:15:03.383Z,1010.12
2023-01-31T14:20:04.322Z,1010.15
2023-01-31T14:25:03.382Z,1010.14
2023-01-31T14:30:04.460Z,1010.05
2023-01-31T14:35:03.381Z,1010.01
2023-01-31T14:40:04.469Z,1010.0
2023-01-31T14:45:03.468Z,1010.0
2023-01-31T14:50:04.347Z,1010.06
2023-01-31T14:55:03.324Z,1010.03
2023-01-31T15:00:04.455Z,1010.0
2023-01-31T15:05:03.414Z,1009.99
2023-01-31T15:10:04.535Z,1009.94
2023-01-31T15:15:03.444Z,1009.94
2023-01-31T15:20:04.717Z,1009.96
2023-01-31T15:25:04.358Z,1009.9
2023-01-31T15:30:04.290Z,1009.87
2023-01-31T15:35:03.529Z,1009.86
2023-01-31T15:40:04.490Z,1009.8
2023-01-31T15:45:03.258Z,1009.74
2023-01-31T15:50:04.598Z,1009.73
2023-01-31T15:55:03.360Z,1009.83
2023-01-31T16:00:05.473Z,1009.92
2023-01-31T16:05:03.343Z,1009.92
2023-01-31T16:10:04.527Z,1009.82
2023-01-31T16:15:03.193Z,1009.73
2023-01-31T16:20:04.385Z,1009.67
2023-01-31T16:25:03.332Z,1009.55
2023-01-31T16:30:04.374Z,1009.58
2023-01-31T16:35:03.453Z,1009.61
2023-01-31T16:40:04.485Z,1009.66
2023-01-31T16:45:03.441Z,1009.61
2023-01-31T16:50:04.552Z,1009.58
2023-01-31T16:55:03.478Z,1009.54
2023-01-31T17:00:04.411Z,1009.48
2023-01-31T17:05:03.410Z,1009.46
2023-01-31T17:10:04.471Z,1009.47
2023-01-31T17:15:04.152Z,1009.4
2023-01-31T17:20:04.439Z,1009.36
2023-01-31T17:25:04.486Z,1009.35
2023-01-31T17:30:04.771Z,1009.29
2023-01-31T17:35:03.361Z,1009.3
2023-01-31T17:40:04.503Z,1009.38
2023-01-31T17:45:03.455Z,1009.4
2023-01-31T17:50:04.512Z,1009.34
2023-01-31T17:55:03.299Z,1009.3
2023-01-31T18:00:04.583Z,1009.24
2023-01-31T18:05:03.390Z,1009.14
2023-01-31T18:10:04.567Z,1009.08
2023-01-31T18:15:03.302Z,1008.99
2023-01-31T18:20:04.328Z,1008.84
2023-01-31T18:25:03.238Z,1008.77
2023-01-31T18:30:04.640Z,1008.68
2023-01-31T18:35:03.430Z,1008.5
2023-01-31T18:40:04.507Z,1008.37
2023-01-31T18:45:03.626Z,1008.25
2023-01-31T18:50:04.531Z,1008.19
2023-01-31T18:55:03.321Z,1008.07
2023-01-31T19:00:04.545Z,1007.97
2023-01-31T19:05:03.342Z,1007.86
2023-01-31T19:10:04.544Z,1007.65
2023-01-31T19:15:03.607Z,1007.52
2023-01-31T19:20:04.644Z,1007.39
2023-01-31T19:25:03.335Z,1007.32
2023-01-31T19:30:04.636Z,1007.24
2023-01-31T19:35:03.552Z,1007.27
2023-01-31T19:40:04.457Z,1007.29
2023-01-31T19:45:03.479Z,1007.21
2023-01-31T19:50:04.372Z,1007.27
2023-01-31T19:55:03.267Z,1007.33
2023-01-31T20:00:04.401Z,1007.35
2023-01-31T20:05:03.475Z,1007.47
2023-01-31T20:10:04.584Z,1007.46
2023-01-31T20:15:03.570Z,1007.54
2023-01-31T20:20:11.584Z,1007.6
2023-01-31T20:25:04.272Z,1007.66
2023-01-31T20:30:05.137Z,1007.68
2023-01-31T20:35:03.387Z,1007.74
2023-01-31T20:40:04.464Z,1007.77
2023-01-31T20:45:03.450Z,1007.81
2023-01-31T20:50:04.569Z,1007.86
2023-01-31T20:55:03.294Z,1007.85
2023-01-31T21:00:04.613Z,1007.79
2023-01-31T21:05:03.458Z,1007.87
2023-01-31T21:10:04.520Z,1008.04
2023-01-31T21:15:03.240Z,1008.2
2023-01-31T21:20:04.599Z,1008.23
2023-01-31T21:25:04.353Z,1008.25
2023-01-31T21:30:05.463Z,1008.32
2023-01-31T21:35:03.611Z,1008.35
2023-01-31T21:40:05.599Z,1008.45
2023-01-31T21:45:03.525Z,1008.59
2023-01-31T21:50:04.533Z,1008.65
2023-01-31T21:55:03.340Z,1008.69
2023-01-31T22:00:05.764Z,1008.68
2023-01-31T22:05:03.418Z,1008.67
2023-01-31T22:10:05.589Z,1008.67
2023-01-31T22:15:03.175Z,1008.77
2023-01-31T22:20:04.357Z,1008.86
2023-01-31T22:25:03.341Z,1008.92
2023-01-31T22:30:15.605Z,1008.97
2023-01-31T22:35:03.345Z,1008.91
2023-01-31T22:40:04.571Z,1008.89
2023-01-31T22:45:03.293Z,1008.92
2023-01-31T22:50:05.426Z,1009.01
2023-01-31T22:55:03.317Z,1009.11
2023-01-31T23:00:04.610Z,1009.2
2023-01-31T23:05:03.413Z,1009.28
2023-01-31T23:10:05.069Z,1009.28
2023-01-31T23:15:03.283Z,1009.32
2023-01-31T23:20:04.344Z,1009.4
2023-01-31T23:25:03.521Z,1009.39
2023-01-31T23:30:04.376Z,1009.4
2023-01-31T23:35:03.346Z,1009.46
2023-01-31T23:40:04.465Z,1009.52
2023-01-31T23:45:03.447Z,1009.57
2023-01-31T23:50:04.335Z,1009.56
2023-01-31T23:55:04.481Z,1009.67
